sensor_id;sensor_type;location;lat;lon;timestamp;pressure;altitude;pressure_sealevel;temperature;humidity
61537;BME280;48695;53.480;-6.300;2024-02-23T00:00:27;97512.94;;;5.92;70.97
61537;BME280;48695;53.480;-6.300;2024-02-23T00:02:53;97482.38;;;5.83;70.67
61537;BME280;48695;53.480;-6.300;2024-02-23T00:05:23;97504.28;;;5.93;70.97
61537;BME280;48695;53.480;-6.300;2024-02-23T00:07:48;97507.59;;;5.95;70.97
61537;BME280;48695;53.480;-6.300;2024-02-23T00:10:14;97497.25;;;5.95;70.64
61537;BME280;48695;53.480;-6.300;2024-02-23T00:12:40;97500.56;;;5.97;70.62
61537;BME280;48695;53.480;-6.300;2024-02-23T00:15:05;97491.13;;;5.96;70.72
61537;BME280;48695;53.480;-6.300;2024-02-23T00:17:32;97504.91;;;5.97;70.91
61537;BME280;48695;53.480;-6.300;2024-02-23T00:19:57;97498.91;;;5.96;70.44
61537;BME280;48695;53.480;-6.300;2024-02-23T00:22:23;97500.75;;;5.94;70.81
61537;BME280;48695;53.480;-6.300;2024-02-23T00:24:51;97500.75;;;5.94;70.62
61537;BME280;48695;53.480;-6.300;2024-02-23T00:27:16;97500.81;;;5.93;71.00
61537;BME280;48695;53.480;-6.300;2024-02-23T00:29:41;97499.16;;;5.92;71.02
61537;BME280;48695;53.480;-6.300;2024-02-23T00:32:07;97498.38;;;5.90;70.96
61537;BME280;48695;53.480;-6.300;2024-02-23T00:34:32;97499.38;;;5.87;70.91
61537;BME280;48695;53.480;-6.300;2024-02-23T00:36:58;97513.34;;;5.85;70.98
61537;BME280;48695;53.480;-6.300;2024-02-23T00:39:23;97520.28;;;5.84;70.84
61537;BME280;48695;53.480;-6.300;2024-02-23T00:41:49;97515.25;;;5.81;70.67
61537;BME280;48695;53.480;-6.300;2024-02-23T00:44:14;97510.25;;;5.78;70.51
61537;BME280;48695;53.480;-6.300;2024-02-23T00:46:40;97495.38;;;5.66;70.90
61537;BME280;48695;53.480;-6.300;2024-02-23T00:49:06;97515.59;;;5.75;71.06
61537;BME280;48695;53.480;-6.300;2024-02-23T00:51:31;97522.63;;;5.73;70.74
61537;BME280;48695;53.480;-6.300;2024-02-23T00:53:57;97519.25;;;5.71;70.59
61537;BME280;48695;53.480;-6.300;2024-02-23T00:56:22;97515.94;;;5.69;70.70
61537;BME280;48695;53.480;-6.300;2024-02-23T00:58:48;97507.38;;;5.67;70.83
61537;BME280;48695;53.480;-6.300;2024-02-23T01:01:13;97524.69;;;5.66;70.85
61537;BME280;48695;53.480;-6.300;2024-02-23T01:03:39;97521.25;;;5.66;70.69
61537;BME280;48695;53.480;-6.300;2024-02-23T01:06:04;97500.38;;;5.53;71.10
61537;BME280;48695;53.480;-6.300;2024-02-23T01:08:30;97514.91;;;5.56;71.05
61537;BME280;48695;53.480;-6.300;2024-02-23T01:10:56;97517.34;;;5.59;70.99
61537;BME280;48695;53.480;-6.300;2024-02-23T01:13:22;97503.56;;;5.58;70.87
61537;BME280;48695;53.480;-6.300;2024-02-23T01:15:47;97506.16;;;5.58;71.15
61537;BME280;48695;53.480;-6.300;2024-02-23T01:18:13;97497.03;;;5.51;70.97
61537;BME280;48695;53.480;-6.300;2024-02-23T01:20:39;97508.06;;;5.55;71.21
61537;BME280;48695;53.480;-6.300;2024-02-23T01:23:05;97479.69;;;5.37;70.97
61537;BME280;48695;53.480;-6.300;2024-02-23T01:25:30;97503.97;;;5.51;70.79
61537;BME280;48695;53.480;-6.300;2024-02-23T01:27:55;97510.06;;;5.50;71.17
61537;BME280;48695;53.480;-6.300;2024-02-23T01:30:21;97515.22;;;5.50;71.27
61537;BME280;48695;53.480;-6.300;2024-02-23T01:32:46;97513.56;;;5.49;71.67
61537;BME280;48695;53.480;-6.300;2024-02-23T01:35:12;97500.69;;;5.47;71.44
61537;BME280;48695;53.480;-6.300;2024-02-23T01:37:37;97510.81;;;5.52;71.51
61537;BME280;48695;53.480;-6.300;2024-02-23T01:40:03;97478.31;;;5.30;71.96
61537;BME280;48695;53.480;-6.300;2024-02-23T01:42:29;97483.84;;;5.40;72.17
61537;BME280;48695;53.480;-6.300;2024-02-23T01:44:55;97508.06;;;5.55;71.74
61537;BME280;48695;53.480;-6.300;2024-02-23T01:47:28;97512.91;;;5.61;71.80
61537;BME280;48695;53.480;-6.300;2024-02-23T01:49:54;97508.66;;;5.60;72.08
61537;BME280;48695;53.480;-6.300;2024-02-23T01:52:21;97511.09;;;5.63;71.59
61537;BME280;48695;53.480;-6.300;2024-02-23T01:54:46;97504.06;;;5.65;71.88
61537;BME280;48695;53.480;-6.300;2024-02-23T01:57:12;97494.44;;;5.67;71.77
61537;BME280;48695;53.480;-6.300;2024-02-23T01:59:38;97491.69;;;5.70;72.07
61537;BME280;48695;53.480;-6.300;2024-02-23T02:02:05;97491.69;;;5.70;71.69
61537;BME280;48695;53.480;-6.300;2024-02-23T02:04:30;97498.53;;;5.71;71.96
61537;BME280;48695;53.480;-6.300;2024-02-23T02:06:57;97481.19;;;5.73;72.09
61537;BME280;48695;53.480;-6.300;2024-02-23T02:09:23;97483.69;;;5.75;71.50
61537;BME280;48695;53.480;-6.300;2024-02-23T02:11:49;97475.16;;;5.72;71.40
61537;BME280;48695;53.480;-6.300;2024-02-23T02:14:15;97470.06;;;5.71;71.44
61537;BME280;48695;53.480;-6.300;2024-02-23T02:16:41;97476.16;;;5.70;71.41
61537;BME280;48695;53.480;-6.300;2024-02-23T02:19:06;97483.19;;;5.68;71.62
61537;BME280;48695;53.480;-6.300;2024-02-23T02:21:32;97480.66;;;5.66;71.97
61537;BME280;48695;53.480;-6.300;2024-02-23T02:23:58;97484.19;;;5.65;71.82
61537;BME280;48695;53.480;-6.300;2024-02-23T02:26:24;97482.44;;;5.66;71.70
61537;BME280;48695;53.480;-6.300;2024-02-23T02:28:49;97484.19;;;5.65;71.65
61537;BME280;48695;53.480;-6.300;2024-02-23T02:31:14;97492.78;;;5.66;72.17
61537;BME280;48695;53.480;-6.300;2024-02-23T02:33:40;97450.78;;;5.45;72.07
61537;BME280;48695;53.480;-6.300;2024-02-23T02:36:06;97473.50;;;5.56;71.77
61537;BME280;48695;53.480;-6.300;2024-02-23T02:38:32;97492.03;;;5.64;72.06
61537;BME280;48695;53.480;-6.300;2024-02-23T02:41:00;97490.38;;;5.63;71.87
61537;BME280;48695;53.480;-6.300;2024-02-23T02:43:26;97488.69;;;5.62;71.79
61537;BME280;48695;53.480;-6.300;2024-02-23T02:45:52;97497.38;;;5.61;71.71
61537;BME280;48695;53.480;-6.300;2024-02-23T02:48:17;97496.63;;;5.59;71.95
61537;BME280;48695;53.480;-6.300;2024-02-23T02:50:43;97499.22;;;5.59;71.56
61537;BME280;48695;53.480;-6.300;2024-02-23T02:53:09;97502.88;;;5.55;72.15
61537;BME280;48695;53.480;-6.300;2024-02-23T02:55:41;97505.38;;;5.56;71.68
61537;BME280;48695;53.480;-6.300;2024-02-23T02:58:07;97507.22;;;5.54;71.93
61537;BME280;48695;53.480;-6.300;2024-02-23T03:00:32;97504.56;;;5.56;71.86
61537;BME280;48695;53.480;-6.300;2024-02-23T03:02:58;97511.56;;;5.54;71.89
61537;BME280;48695;53.480;-6.300;2024-02-23T03:05:23;97511.56;;;5.54;72.26
61537;BME280;48695;53.480;-6.300;2024-02-23T03:07:49;97515.00;;;5.54;72.36
61537;BME280;48695;53.480;-6.300;2024-02-23T03:10:14;97514.06;;;5.55;72.55
61537;BME280;48695;53.480;-6.300;2024-02-23T03:12:40;97510.81;;;5.52;72.49
61537;BME280;48695;53.480;-6.300;2024-02-23T03:15:06;97511.47;;;5.55;71.97
61537;BME280;48695;53.480;-6.300;2024-02-23T03:17:32;97514.06;;;5.55;72.07
61537;BME280;48695;53.480;-6.300;2024-02-23T03:19:58;97514.91;;;5.56;72.05
61537;BME280;48695;53.480;-6.300;2024-02-23T03:22:24;97511.72;;;5.51;72.35
61537;BME280;48695;53.480;-6.300;2024-02-23T03:24:49;97507.91;;;5.58;72.30
61537;BME280;48695;53.480;-6.300;2024-02-23T03:27:14;97516.56;;;5.57;72.34
61537;BME280;48695;53.480;-6.300;2024-02-23T03:29:40;97509.63;;;5.57;72.15
61537;BME280;48695;53.480;-6.300;2024-02-23T03:32:06;97509.56;;;5.59;71.98
61537;BME280;48695;53.480;-6.300;2024-02-23T03:34:31;97501.03;;;5.57;72.12
61537;BME280;48695;53.480;-6.300;2024-02-23T03:36:57;97484.50;;;5.43;71.94
61537;BME280;48695;53.480;-6.300;2024-02-23T03:39:23;97501.03;;;5.57;72.10
61537;BME280;48695;53.480;-6.300;2024-02-23T03:41:49;97498.53;;;5.55;71.87
61537;BME280;48695;53.480;-6.300;2024-02-23T03:44:14;97494.19;;;5.56;72.24
61537;BME280;48695;53.480;-6.300;2024-02-23T03:46:40;97489.03;;;5.56;71.78
61537;BME280;48695;53.480;-6.300;2024-02-23T03:49:05;97485.59;;;5.55;72.23
61537;BME280;48695;53.480;-6.300;2024-02-23T03:51:30;97488.28;;;5.54;71.90
61537;BME280;48695;53.480;-6.300;2024-02-23T03:53:58;97494.28;;;5.54;71.91
61537;BME280;48695;53.480;-6.300;2024-02-23T03:56:23;97495.22;;;5.53;72.09
61537;BME280;48695;53.480;-6.300;2024-02-23T03:58:48;97492.69;;;5.52;72.02
61537;BME280;48695;53.480;-6.300;2024-02-23T04:01:14;97496.19;;;5.51;72.05
61537;BME280;48695;53.480;-6.300;2024-02-23T04:03:39;97519.50;;;5.51;71.77
61537;BME280;48695;53.480;-6.300;2024-02-23T04:06:05;97493.03;;;5.45;72.06
61537;BME280;48695;53.480;-6.300;2024-02-23T04:08:32;97487.16;;;5.42;71.91
61537;BME280;48695;53.480;-6.300;2024-02-23T04:10:57;97497.47;;;5.43;71.75
61537;BME280;48695;53.480;-6.300;2024-02-23T04:13:23;97505.38;;;5.40;72.09
61537;BME280;48695;53.480;-6.300;2024-02-23T04:15:48;97498.53;;;5.39;72.03
61537;BME280;48695;53.480;-6.300;2024-02-23T04:18:13;97500.38;;;5.37;72.06
61537;BME280;48695;53.480;-6.300;2024-02-23T04:20:39;97480.16;;;5.28;71.55
61537;BME280;48695;53.480;-6.300;2024-02-23T04:23:04;97514.38;;;5.33;72.00
61537;BME280;48695;53.480;-6.300;2024-02-23T04:25:30;97520.53;;;5.31;71.83
61537;BME280;48695;53.480;-6.300;2024-02-23T04:27:55;97503.44;;;5.28;71.60
61537;BME280;48695;53.480;-6.300;2024-02-23T04:30:20;97500.03;;;5.28;71.61
61537;BME280;48695;53.480;-6.300;2024-02-23T04:32:46;97495.81;;;5.25;71.77
61537;BME280;48695;53.480;-6.300;2024-02-23T04:35:11;97499.47;;;5.21;71.60
61537;BME280;48695;53.480;-6.300;2024-02-23T04:37:37;97488.31;;;5.20;72.16
61537;BME280;48695;53.480;-6.300;2024-02-23T04:40:03;97486.72;;;5.18;72.21
61537;BME280;48695;53.480;-6.300;2024-02-23T04:42:30;97493.72;;;5.16;71.81
61537;BME280;48695;53.480;-6.300;2024-02-23T04:44:56;97461.00;;;4.99;71.71
61537;BME280;48695;53.480;-6.300;2024-02-23T04:47:21;97486.97;;;5.13;71.90
61537;BME280;48695;53.480;-6.300;2024-02-23T04:49:47;97492.19;;;5.12;71.92
61537;BME280;48695;53.480;-6.300;2024-02-23T04:52:12;97486.28;;;5.10;72.40
61537;BME280;48695;53.480;-6.300;2024-02-23T04:54:38;97484.63;;;5.09;71.90
61537;BME280;48695;53.480;-6.300;2024-02-23T04:57:03;97493.31;;;5.08;72.20
61537;BME280;48695;53.480;-6.300;2024-02-23T04:59:29;97484.34;;;4.98;71.73
61537;BME280;48695;53.480;-6.300;2024-02-23T05:01:56;97495.09;;;5.06;72.18
61537;BME280;48695;53.480;-6.300;2024-02-23T05:04:22;97498.63;;;5.05;72.06
61537;BME280;48695;53.480;-6.300;2024-02-23T05:06:47;97507.28;;;5.04;72.11
61537;BME280;48695;53.480;-6.300;2024-02-23T05:09:13;97510.94;;;5.00;71.94
61537;BME280;48695;53.480;-6.300;2024-02-23T05:11:38;97522.13;;;5.00;72.33
61537;BME280;48695;53.480;-6.300;2024-02-23T05:14:04;97522.13;;;5.00;71.95
61537;BME280;48695;53.480;-6.300;2024-02-23T05:16:29;97506.00;;;4.95;72.39
61537;BME280;48695;53.480;-6.300;2024-02-23T05:18:55;97511.03;;;4.98;72.37
61537;BME280;48695;53.480;-6.300;2024-02-23T05:21:20;97510.19;;;4.98;72.25
61537;BME280;48695;53.480;-6.300;2024-02-23T05:23:46;97511.19;;;4.95;72.26
61537;BME280;48695;53.480;-6.300;2024-02-23T05:26:14;97502.59;;;4.94;72.33
61537;BME280;48695;53.480;-6.300;2024-02-23T05:28:39;97503.50;;;4.93;72.66
61537;BME280;48695;53.480;-6.300;2024-02-23T05:31:04;97499.25;;;4.92;72.58
61537;BME280;48695;53.480;-6.300;2024-02-23T05:33:30;97503.59;;;4.92;72.49
61537;BME280;48695;53.480;-6.300;2024-02-23T05:35:55;97510.56;;;4.90;72.24
61537;BME280;48695;53.480;-6.300;2024-02-23T05:38:21;97511.72;;;4.84;72.51
61537;BME280;48695;53.480;-6.300;2024-02-23T05:40:46;97526.19;;;4.88;72.26
61537;BME280;48695;53.480;-6.300;2024-02-23T05:43:13;97527.09;;;4.87;72.16
61537;BME280;48695;53.480;-6.300;2024-02-23T05:45:39;97527.38;;;4.81;72.80
61537;BME280;48695;53.480;-6.300;2024-02-23T05:48:05;97540.06;;;4.86;72.43
61537;BME280;48695;53.480;-6.300;2024-02-23T05:50:30;97542.75;;;4.84;72.36
61537;BME280;48695;53.480;-6.300;2024-02-23T05:52:57;97537.72;;;4.81;72.29
61537;BME280;48695;53.480;-6.300;2024-02-23T05:55:23;97534.38;;;4.79;72.39
61537;BME280;48695;53.480;-6.300;2024-02-23T05:57:49;97548.94;;;4.82;72.26
61537;BME280;48695;53.480;-6.300;2024-02-23T06:00:16;97548.16;;;4.80;72.47
61537;BME280;48695;53.480;-6.300;2024-02-23T06:02:44;97558.56;;;4.78;72.58
61537;BME280;48695;53.480;-6.300;2024-02-23T06:05:10;97562.91;;;4.78;72.26
61537;BME280;48695;53.480;-6.300;2024-02-23T06:07:35;97560.38;;;4.76;72.67
61537;BME280;48695;53.480;-6.300;2024-02-23T06:10:02;97564.72;;;4.76;72.55
61537;BME280;48695;53.480;-6.300;2024-02-23T06:12:27;97568.22;;;4.75;72.65
61537;BME280;48695;53.480;-6.300;2024-02-23T06:14:52;97573.56;;;4.72;72.49
61537;BME280;48695;53.480;-6.300;2024-02-23T06:17:18;97572.88;;;4.68;72.82
61537;BME280;48695;53.480;-6.300;2024-02-23T06:19:44;97555.34;;;4.56;72.66
61537;BME280;48695;53.480;-6.300;2024-02-23T06:22:09;97572.88;;;4.68;72.67
61537;BME280;48695;53.480;-6.300;2024-02-23T06:24:38;97571.34;;;4.64;72.97
61537;BME280;48695;53.480;-6.300;2024-02-23T06:27:04;97572.16;;;4.64;73.00
61537;BME280;48695;53.480;-6.300;2024-02-23T06:29:29;97573.91;;;4.64;72.88
61537;BME280;48695;53.480;-6.300;2024-02-23T06:31:55;97568.13;;;4.59;72.69
61537;BME280;48695;53.480;-6.300;2024-02-23T06:34:21;97570.59;;;4.62;72.89
61537;BME280;48695;53.480;-6.300;2024-02-23T06:36:46;97570.63;;;4.60;72.88
61537;BME280;48695;53.480;-6.300;2024-02-23T06:39:12;97573.44;;;4.56;72.55
61537;BME280;48695;53.480;-6.300;2024-02-23T06:41:40;97568.97;;;4.59;73.08
61537;BME280;48695;53.480;-6.300;2024-02-23T06:44:05;97569.97;;;4.57;73.09
61537;BME280;48695;53.480;-6.300;2024-02-23T06:46:31;97568.28;;;4.56;73.12
61537;BME280;48695;53.480;-6.300;2024-02-23T06:48:56;97578.59;;;4.56;72.93
61537;BME280;48695;53.480;-6.300;2024-02-23T06:51:22;97573.53;;;4.54;72.96
61537;BME280;48695;53.480;-6.300;2024-02-23T06:53:47;97570.09;;;4.54;72.72
61537;BME280;48695;53.480;-6.300;2024-02-23T06:56:13;97577.13;;;4.52;73.12
61537;BME280;48695;53.480;-6.300;2024-02-23T06:58:38;97577.13;;;4.52;73.00
61537;BME280;48695;53.480;-6.300;2024-02-23T07:01:04;97581.44;;;4.51;72.99
61537;BME280;48695;53.480;-6.300;2024-02-23T07:03:31;97578.91;;;4.50;72.89
61537;BME280;48695;53.480;-6.300;2024-02-23T07:05:57;97587.59;;;4.49;72.71
61537;BME280;48695;53.480;-6.300;2024-02-23T07:08:22;97579.75;;;4.50;73.00
61537;BME280;48695;53.480;-6.300;2024-02-23T07:10:48;97578.91;;;4.50;72.59
61537;BME280;48695;53.480;-6.300;2024-02-23T07:13:13;97578.91;;;4.50;72.68
61537;BME280;48695;53.480;-6.300;2024-02-23T07:15:39;97585.91;;;4.48;73.08
61537;BME280;48695;53.480;-6.300;2024-02-23T07:18:04;97570.72;;;4.41;73.16
61537;BME280;48695;53.480;-6.300;2024-02-23T07:20:30;97584.50;;;4.40;73.09
61537;BME280;48695;53.480;-6.300;2024-02-23T07:22:55;97599.75;;;4.47;73.21
61537;BME280;48695;53.480;-6.300;2024-02-23T07:25:21;97604.00;;;4.48;72.80
61537;BME280;48695;53.480;-6.300;2024-02-23T07:27:47;97600.59;;;4.47;73.30
61537;BME280;48695;53.480;-6.300;2024-02-23T07:30:15;97595.56;;;4.44;73.34
61537;BME280;48695;53.480;-6.300;2024-02-23T07:32:44;97616.91;;;4.48;73.55
61537;BME280;48695;53.480;-6.300;2024-02-23T07:35:11;97597.22;;;4.45;73.13
61537;BME280;48695;53.480;-6.300;2024-02-23T07:37:37;97616.09;;;4.47;73.22
61537;BME280;48695;53.480;-6.300;2024-02-23T07:40:03;97622.09;;;4.48;73.48
61537;BME280;48695;53.480;-6.300;2024-02-23T07:42:30;97607.22;;;4.34;73.26
61537;BME280;48695;53.480;-6.300;2024-02-23T07:44:55;97622.91;;;4.48;73.33
61537;BME280;48695;53.480;-6.300;2024-02-23T07:47:21;97632.41;;;4.48;73.28
61537;BME280;48695;53.480;-6.300;2024-02-23T07:49:46;97627.25;;;4.48;73.22
61537;BME280;48695;53.480;-6.300;2024-02-23T07:52:12;97625.59;;;4.47;73.22
61537;BME280;48695;53.480;-6.300;2024-02-23T07:54:37;97629.75;;;4.49;73.60
61537;BME280;48695;53.480;-6.300;2024-02-23T07:57:03;97628.09;;;4.48;73.69
61537;BME280;48695;53.480;-6.300;2024-02-23T07:59:30;97635.75;;;4.50;73.33
61537;BME280;48695;53.480;-6.300;2024-02-23T08:01:55;97632.25;;;4.51;73.20
61537;BME280;48695;53.480;-6.300;2024-02-23T08:04:21;97639.25;;;4.49;73.37
61537;BME280;48695;53.480;-6.300;2024-02-23T08:06:46;97639.13;;;4.52;73.34
61537;BME280;48695;53.480;-6.300;2024-02-23T08:09:12;97641.63;;;4.53;73.49
61537;BME280;48695;53.480;-6.300;2024-02-23T08:11:37;97651.97;;;4.53;73.83
61537;BME280;48695;53.480;-6.300;2024-02-23T08:14:02;97657.03;;;4.55;73.59
61537;BME280;48695;53.480;-6.300;2024-02-23T08:16:28;97662.09;;;4.58;73.55
61537;BME280;48695;53.480;-6.300;2024-02-23T08:18:54;97661.16;;;4.59;73.75
61537;BME280;48695;53.480;-6.300;2024-02-23T08:21:19;97663.66;;;4.60;73.30
61537;BME280;48695;53.480;-6.300;2024-02-23T08:23:45;97661.03;;;4.62;73.77
61537;BME280;48695;53.480;-6.300;2024-02-23T08:26:11;97663.53;;;4.63;73.88
61537;BME280;48695;53.480;-6.300;2024-02-23T08:28:36;97670.25;;;4.67;73.28
61537;BME280;48695;53.480;-6.300;2024-02-23T08:31:01;97667.56;;;4.69;73.47
61537;BME280;48695;53.480;-6.300;2024-02-23T08:33:27;97677.78;;;4.72;73.53
61537;BME280;48695;53.480;-6.300;2024-02-23T08:35:52;97676.78;;;4.75;73.77
61537;BME280;48695;53.480;-6.300;2024-02-23T08:38:18;97672.31;;;4.78;73.56
61537;BME280;48695;53.480;-6.300;2024-02-23T08:40:44;97677.19;;;4.84;73.73
61537;BME280;48695;53.480;-6.300;2024-02-23T08:43:10;97671.94;;;4.86;73.48
61537;BME280;48695;53.480;-6.300;2024-02-23T08:45:36;97680.38;;;4.89;73.79
61537;BME280;48695;53.480;-6.300;2024-02-23T08:48:01;97649.06;;;4.78;73.36
61537;BME280;48695;53.480;-6.300;2024-02-23T08:50:28;97680.91;;;4.96;73.55
61537;BME280;48695;53.480;-6.300;2024-02-23T08:52:54;97674.78;;;4.99;73.46
61537;BME280;48695;53.480;-6.300;2024-02-23T08:55:19;97679.78;;;5.02;73.76
61537;BME280;48695;53.480;-6.300;2024-02-23T08:57:44;97686.66;;;5.03;73.76
61537;BME280;48695;53.480;-6.300;2024-02-23T09:00:10;97689.03;;;5.07;73.89
61537;BME280;48695;53.480;-6.300;2024-02-23T09:02:36;97694.84;;;5.11;73.97
61537;BME280;48695;53.480;-6.300;2024-02-23T09:05:03;97696.38;;;5.15;73.83
61537;BME280;48695;53.480;-6.300;2024-02-23T09:07:30;97694.56;;;5.17;73.88
61537;BME280;48695;53.480;-6.300;2024-02-23T09:09:55;97696.06;;;5.21;73.73
61537;BME280;48695;53.480;-6.300;2024-02-23T09:12:21;97687.56;;;5.19;73.35
61537;BME280;48695;53.480;-6.300;2024-02-23T09:14:47;97697.53;;;5.27;73.72
61537;BME280;48695;53.480;-6.300;2024-02-23T09:17:13;97685.91;;;5.18;73.54
61537;BME280;48695;53.480;-6.300;2024-02-23T09:19:38;97687.13;;;5.28;73.35
61537;BME280;48695;53.480;-6.300;2024-02-23T09:22:04;97694.50;;;5.36;73.73
61537;BME280;48695;53.480;-6.300;2024-02-23T09:24:30;97700.34;;;5.39;73.80
61537;BME280;48695;53.480;-6.300;2024-02-23T09:26:55;97690.16;;;5.36;73.79
61537;BME280;48695;53.480;-6.300;2024-02-23T09:29:21;97696.63;;;5.45;73.83
61537;BME280;48695;53.480;-6.300;2024-02-23T09:31:47;97697.38;;;5.47;73.28
61537;BME280;48695;53.480;-6.300;2024-02-23T09:34:12;97697.31;;;5.49;73.73
61537;BME280;48695;53.480;-6.300;2024-02-23T09:36:38;97692.88;;;5.51;73.29
61537;BME280;48695;53.480;-6.300;2024-02-23T09:39:03;97693.66;;;5.53;73.28
61537;BME280;48695;53.480;-6.300;2024-02-23T09:41:30;97697.91;;;5.54;73.27
61537;BME280;48695;53.480;-6.300;2024-02-23T09:43:58;97706.34;;;5.57;73.60
61537;BME280;48695;53.480;-6.300;2024-02-23T09:46:25;97708.72;;;5.62;73.47
61537;BME280;48695;53.480;-6.300;2024-02-23T09:48:51;97700.78;;;5.65;73.40
61537;BME280;48695;53.480;-6.300;2024-02-23T09:51:17;97710.09;;;5.69;73.52
61537;BME280;48695;53.480;-6.300;2024-02-23T09:53:43;97708.84;;;5.76;74.07
61537;BME280;48695;53.480;-6.300;2024-02-23T09:56:09;97706.38;;;5.90;74.28
61537;BME280;48695;53.480;-6.300;2024-02-23T09:58:39;97711.50;;;6.09;74.66
61537;BME280;48695;53.480;-6.300;2024-02-23T10:01:06;97713.94;;;6.28;74.47
61537;BME280;48695;53.480;-6.300;2024-02-23T10:03:32;97711.53;;;6.41;73.83
61537;BME280;48695;53.480;-6.300;2024-02-23T10:05:57;97712.72;;;6.51;73.66
61537;BME280;48695;53.480;-6.300;2024-02-23T10:08:23;97713.03;;;6.61;73.49
61537;BME280;48695;53.480;-6.300;2024-02-23T10:10:49;97714.22;;;6.71;73.65
61537;BME280;48695;53.480;-6.300;2024-02-23T10:13:24;97706.00;;;6.79;73.23
61537;BME280;48695;53.480;-6.300;2024-02-23T10:15:50;97719.56;;;6.84;73.09
61537;BME280;48695;53.480;-6.300;2024-02-23T10:18:16;97728.44;;;6.95;72.93
61537;BME280;48695;53.480;-6.300;2024-02-23T10:20:42;97709.69;;;6.90;72.98
61537;BME280;48695;53.480;-6.300;2024-02-23T10:23:08;97712.09;;;6.93;72.67
61537;BME280;48695;53.480;-6.300;2024-02-23T10:25:35;97741.47;;;7.10;72.57
61537;BME280;48695;53.480;-6.300;2024-02-23T10:28:04;97742.06;;;7.15;72.82
61537;BME280;48695;53.480;-6.300;2024-02-23T10:30:30;97737.69;;;7.15;72.36
61537;BME280;48695;53.480;-6.300;2024-02-23T10:32:57;97741.13;;;7.16;72.40
61537;BME280;48695;53.480;-6.300;2024-02-23T10:35:24;97741.13;;;7.16;72.00
61537;BME280;48695;53.480;-6.300;2024-02-23T10:37:50;97742.88;;;7.15;71.93
61537;BME280;48695;53.480;-6.300;2024-02-23T10:40:18;97742.78;;;7.17;72.17
61537;BME280;48695;53.480;-6.300;2024-02-23T10:42:45;97744.31;;;7.21;72.60
61537;BME280;48695;53.480;-6.300;2024-02-23T10:45:20;97751.50;;;7.16;71.77
61537;BME280;48695;53.480;-6.300;2024-02-23T10:47:50;97753.19;;;7.17;71.66
61537;BME280;48695;53.480;-6.300;2024-02-23T10:50:17;97732.00;;;7.09;72.03
61537;BME280;48695;53.480;-6.300;2024-02-23T10:52:44;97746.31;;;7.16;72.49
61537;BME280;48695;53.480;-6.300;2024-02-23T10:55:10;97751.00;;;7.25;72.07
61537;BME280;48695;53.480;-6.300;2024-02-23T10:57:36;97752.31;;;7.32;72.34
61537;BME280;48695;53.480;-6.300;2024-02-23T11:00:03;97755.31;;;7.40;72.22
61537;BME280;48695;53.480;-6.300;2024-02-23T11:02:38;97758.50;;;7.45;71.91
61537;BME280;48695;53.480;-6.300;2024-02-23T11:05:04;97757.56;;;7.46;72.11
61537;BME280;48695;53.480;-6.300;2024-02-23T11:07:38;97758.03;;;7.53;72.04
61537;BME280;48695;53.480;-6.300;2024-02-23T11:10:05;97763.69;;;7.60;71.91
61537;BME280;48695;53.480;-6.300;2024-02-23T11:12:30;97761.03;;;7.61;71.76
61537;BME280;48695;53.480;-6.300;2024-02-23T11:14:56;97761.94;;;7.60;71.09
61537;BME280;48695;53.480;-6.300;2024-02-23T11:17:26;97767.69;;;7.65;71.20
61537;BME280;48695;53.480;-6.300;2024-02-23T11:19:51;97767.81;;;7.64;71.05
61537;BME280;48695;53.480;-6.300;2024-02-23T11:24:51;97779.69;;;7.68;70.94
61537;BME280;48695;53.480;-6.300;2024-02-23T11:27:16;97773.66;;;7.67;70.98
61537;BME280;48695;53.480;-6.300;2024-02-23T11:29:46;97781.19;;;7.72;70.58
61537;BME280;48695;53.480;-6.300;2024-02-23T11:32:17;97773.41;;;7.72;71.06
61537;BME280;48695;53.480;-6.300;2024-02-23T11:34:58;97784.34;;;7.77;71.16
61537;BME280;48695;53.480;-6.300;2024-02-23T11:37:24;97779.34;;;7.74;70.62
61537;BME280;48695;53.480;-6.300;2024-02-23T11:39:53;97781.75;;;7.77;70.73
61537;BME280;48695;53.480;-6.300;2024-02-23T11:42:19;97781.56;;;7.80;71.20
61537;BME280;48695;53.480;-6.300;2024-02-23T11:44:45;97784.09;;;7.82;70.64
61537;BME280;48695;53.480;-6.300;2024-02-23T11:47:10;97778.81;;;7.83;70.64
61537;BME280;48695;53.480;-6.300;2024-02-23T11:49:35;97777.88;;;7.84;70.88
61537;BME280;48695;53.480;-6.300;2024-02-23T11:52:01;97780.31;;;7.87;70.69
61537;BME280;48695;53.480;-6.300;2024-02-23T11:54:27;97783.63;;;7.89;70.51
61537;BME280;48695;53.480;-6.300;2024-02-23T11:56:52;97790.34;;;7.93;70.56
61537;BME280;48695;53.480;-6.300;2024-02-23T11:59:20;97788.28;;;7.98;70.84
61537;BME280;48695;53.480;-6.300;2024-02-23T12:01:47;97781.59;;;7.94;70.75
61537;BME280;48695;53.480;-6.300;2024-02-23T12:04:15;97780.34;;;8.01;70.31
61537;BME280;48695;53.480;-6.300;2024-02-23T12:06:41;97781.91;;;8.04;70.05
61537;BME280;48695;53.480;-6.300;2024-02-23T12:09:07;97772.53;;;8.01;70.11
61537;BME280;48695;53.480;-6.300;2024-02-23T12:11:33;97773.84;;;8.09;70.16
61537;BME280;48695;53.480;-6.300;2024-02-23T12:14:00;97772.72;;;8.13;70.11
61537;BME280;48695;53.480;-6.300;2024-02-23T12:16:27;97769.94;;;8.16;70.56
61537;BME280;48695;53.480;-6.300;2024-02-23T12:18:54;97751.38;;;8.07;69.90
61537;BME280;48695;53.480;-6.300;2024-02-23T12:21:20;97778.22;;;8.22;69.52
61537;BME280;48695;53.480;-6.300;2024-02-23T12:23:48;97779.59;;;8.28;69.46
61537;BME280;48695;53.480;-6.300;2024-02-23T12:26:16;97777.56;;;8.33;69.41
61537;BME280;48695;53.480;-6.300;2024-02-23T12:28:42;97776.84;;;8.45;70.33
61537;BME280;48695;53.480;-6.300;2024-02-23T12:31:08;97782.78;;;8.62;69.99
61537;BME280;48695;53.480;-6.300;2024-02-23T12:33:38;97747.84;;;8.66;69.86
61537;BME280;48695;53.480;-6.300;2024-02-23T12:36:07;97759.31;;;8.90;69.02
61537;BME280;48695;53.480;-6.300;2024-02-23T12:38:34;97756.50;;;9.07;69.56
61537;BME280;48695;53.480;-6.300;2024-02-23T12:41:00;97759.81;;;9.24;68.96
61537;BME280;48695;53.480;-6.300;2024-02-23T12:43:26;97750.78;;;9.42;69.75
61537;BME280;48695;53.480;-6.300;2024-02-23T12:45:52;97757.50;;;9.59;68.34
61537;BME280;48695;53.480;-6.300;2024-02-23T12:48:18;97747.94;;;9.72;68.84
61537;BME280;48695;53.480;-6.300;2024-02-23T12:50:45;97751.94;;;9.91;68.33
61537;BME280;48695;53.480;-6.300;2024-02-23T12:53:39;97741.31;;;10.19;70.03
61537;BME280;48695;53.480;-6.300;2024-02-23T12:56:06;97741.84;;;10.37;67.34